Time;durP1;ratioP1;P1;durP2;ratioP2;P2;SDS_P1;SDS_P2;PMS_P1;PMS_P2;Temp;Humidity;BMP_temperature;BMP_pressure;BME280_temperature;BME280_humidity;BME280_pressure;Samples;Min_cycle;Max_cycle;Signal;HPM_P1;HPM_P2
2023/12/21 00:01:46;;;;;;;12.13;5.32;;;;;;;;;;6262538;28;20041;-69
2023/12/21 00:04:46;;;;;;;14.30;6.18;;;;;;;;;;6263191;28;20049;-69
2023/12/21 00:07:47;;;;;;;17.42;5.72;;;;;;;;;;6258538;28;20049;-68
2023/12/21 00:10:48;;;;;;;14.88;5.57;;;;;;;;;;6261907;28;20048;-69
2023/12/21 00:13:49;;;;;;;15.93;6.43;;;;;;;;;;6259418;28;20060;-68
2023/12/21 00:16:49;;;;;;;18.20;6.65;;;;;;;;;;6256346;28;20061;-68
2023/12/21 00:19:50;;;;;;;14.55;6.70;;;;;;;;;;6261095;28;20041;-68
2023/12/21 00:22:51;;;;;;;13.97;6.67;;;;;;;;;;6260232;28;20296;-68
2023/12/21 00:25:53;;;;;;;15.45;6.65;;;;;;;;;;6262711;28;20355;-70
2023/12/21 00:28:53;;;;;;;15.68;5.63;;;;;;;;;;6259204;28;20048;-68
2023/12/21 00:31:54;;;;;;;14.48;5.88;;;;;;;;;;6262249;28;20514;-68
2023/12/21 00:34:55;;;;;;;16.83;6.15;;;;;;;;;;6262174;28;20491;-68
2023/12/21 00:37:55;;;;;;;16.42;6.18;;;;;;;;;;6264384;28;20037;-67
2023/12/21 00:41:00;;;;;;;16.60;5.50;;;;;;;;;;6263851;28;20045;-68
2023/12/21 00:44:00;;;;;;;12.20;5.60;;;;;;;;;;6261884;28;20605;-68
2023/12/21 00:47:02;;;;;;;12.25;6.13;;;;;;;;;;6263632;28;20053;-68
2023/12/21 00:50:03;;;;;;;10.13;5.00;;;;;;;;;;6263267;28;20059;-68
2023/12/21 00:53:04;;;;;;;14.98;6.03;;;;;;;;;;6262251;28;20041;-69
2023/12/21 00:56:05;;;;;;;15.45;5.70;;;;;;;;;;6262852;28;20521;-69
2023/12/21 00:59:05;;;;;;;16.80;5.80;;;;;;;;;;6261285;28;20041;-69
2023/12/21 01:02:06;;;;;;;16.60;5.63;;;;;;;;;;6262819;28;20061;-69
2023/12/21 01:05:07;;;;;;;17.77;6.30;;;;;;;;;;6261026;28;20446;-68
2023/12/21 01:08:08;;;;;;;12.90;5.32;;;;;;;;;;6263393;28;20067;-68
2023/12/21 01:11:09;;;;;;;15.00;6.25;;;;;;;;;;6260519;28;20412;-69
2023/12/21 01:14:09;;;;;;;12.93;6.18;;;;;;;;;;6260303;28;20045;-68
2023/12/21 01:17:10;;;;;;;17.35;6.88;;;;;;;;;;6260418;28;20044;-68
2023/12/21 01:20:11;;;;;;;16.50;7.38;;;;;;;;;;6261133;28;20037;-68
2023/12/21 01:23:12;;;;;;;13.77;6.65;;;;;;;;;;6261431;28;20044;-68
2023/12/21 01:26:13;;;;;;;15.65;5.00;;;;;;;;;;6261253;28;20400;-68
2023/12/21 01:29:14;;;;;;;12.65;4.85;;;;;;;;;;6263150;28;20041;-67
2023/12/21 01:32:15;;;;;;;13.95;4.97;;;;;;;;;;6262024;28;20128;-68
2023/12/21 01:35:15;;;;;;;10.45;4.15;;;;;;;;;;6262414;28;20549;-68
2023/12/21 01:38:16;;;;;;;12.52;5.10;;;;;;;;;;6262854;28;20480;-68
2023/12/21 01:41:17;;;;;;;13.50;4.53;;;;;;;;;;6262973;28;20111;-69
2023/12/21 01:44:18;;;;;;;11.88;3.97;;;;;;;;;;6261230;28;20068;-68
2023/12/21 01:47:18;;;;;;;12.10;3.90;;;;;;;;;;6263276;28;20041;-68
2023/12/21 01:50:19;;;;;;;11.20;4.63;;;;;;;;;;6262834;28;20352;-68
2023/12/21 01:53:20;;;;;;;13.40;4.15;;;;;;;;;;6261222;28;20057;-69
2023/12/21 01:56:21;;;;;;;11.68;4.55;;;;;;;;;;6265495;28;20045;-69
2023/12/21 01:59:21;;;;;;;8.80;4.00;;;;;;;;;;6265397;28;20048;-69
2023/12/21 02:02:22;;;;;;;12.50;5.03;;;;;;;;;;6267013;28;20056;-69
2023/12/21 02:05:23;;;;;;;11.07;4.88;;;;;;;;;;6264415;28;20063;-70
2023/12/21 02:08:24;;;;;;;11.30;4.53;;;;;;;;;;6266972;28;20507;-69
2023/12/21 02:11:24;;;;;;;12.27;5.18;;;;;;;;;;6266453;28;20048;-70
2023/12/21 02:14:25;;;;;;;12.98;4.85;;;;;;;;;;6262894;28;20083;-68
2023/12/21 02:17:27;;;;;;;14.23;5.38;;;;;;;;;;6265927;28;20496;-70
2023/12/21 02:20:29;;;;;;;9.65;4.25;;;;;;;;;;6265213;28;20048;-70
2023/12/21 02:23:34;;;;;;;10.33;4.43;;;;;;;;;;6264067;28;20484;-69
2023/12/21 02:26:35;;;;;;;11.05;5.07;;;;;;;;;;6265147;28;20313;-70
2023/12/21 02:29:36;;;;;;;14.98;4.55;;;;;;;;;;6265830;28;20052;-70
2023/12/21 02:32:37;;;;;;;11.80;4.85;;;;;;;;;;6263244;28;20057;-69
2023/12/21 02:35:38;;;;;;;13.48;6.22;;;;;;;;;;6267116;28;20136;-70
2023/12/21 02:38:38;;;;;;;9.73;4.43;;;;;;;;;;6267251;28;20134;-69
2023/12/21 02:41:39;;;;;;;11.65;4.35;;;;;;;;;;6264026;28;20510;-69
2023/12/21 02:44:40;;;;;;;10.32;4.55;;;;;;;;;;6262240;28;20869;-69
2023/12/21 02:47:40;;;;;;;10.18;3.92;;;;;;;;;;6266034;28;20106;-67
2023/12/21 02:50:41;;;;;;;12.82;6.13;;;;;;;;;;6266551;28;20046;-68
2023/12/21 02:53:42;;;;;;;10.43;5.78;;;;;;;;;;6264399;28;21000;-68
2023/12/21 02:56:43;;;;;;;11.20;4.70;;;;;;;;;;6265835;28;20049;-69
2023/12/21 02:59:43;;;;;;;12.20;4.13;;;;;;;;;;6265772;28;20041;-69
2023/12/21 03:02:44;;;;;;;7.40;3.65;;;;;;;;;;6264349;28;20503;-69
2023/12/21 03:05:46;;;;;;;11.90;4.20;;;;;;;;;;6262667;28;20044;-68
2023/12/21 03:08:46;;;;;;;9.80;4.30;;;;;;;;;;6264960;28;20139;-69
2023/12/21 03:11:47;;;;;;;8.95;3.40;;;;;;;;;;6263323;28;20563;-69
2023/12/21 03:14:48;;;;;;;8.15;3.95;;;;;;;;;;6264059;28;20049;-68
2023/12/21 03:17:49;;;;;;;9.75;3.70;;;;;;;;;;6264257;28;20056;-69
2023/12/21 03:20:49;;;;;;;7.03;3.58;;;;;;;;;;6264610;28;20049;-68
2023/12/21 03:23:50;;;;;;;10.00;3.72;;;;;;;;;;6261958;28;20049;-69
2023/12/21 03:26:51;;;;;;;10.02;3.58;;;;;;;;;;6264871;28;20033;-69
2023/12/21 03:29:52;;;;;;;10.75;3.97;;;;;;;;;;6265113;28;20377;-69
2023/12/21 03:32:52;;;;;;;8.43;4.10;;;;;;;;;;6263339;28;20041;-68
2023/12/21 03:35:53;;;;;;;9.00;3.85;;;;;;;;;;6264546;28;20052;-67
2023/12/21 03:38:54;;;;;;;8.23;3.20;;;;;;;;;;6264744;28;20075;-67
2023/12/21 03:41:54;;;;;;;7.10;3.60;;;;;;;;;;6263996;28;20059;-68
2023/12/21 03:44:55;;;;;;;6.95;3.40;;;;;;;;;;6262140;28;20045;-68
2023/12/21 03:47:56;;;;;;;8.50;3.47;;;;;;;;;;6263008;28;20394;-68
2023/12/21 03:50:56;;;;;;;9.55;3.92;;;;;;;;;;6264797;28;20055;-69
2023/12/21 03:53:57;;;;;;;8.07;3.70;;;;;;;;;;6260897;28;20055;-67
2023/12/21 03:56:59;;;;;;;6.40;3.03;;;;;;;;;;6263035;28;20496;-67
2023/12/21 04:00:01;;;;;;;9.10;3.50;;;;;;;;;;6264455;28;20044;-68
2023/12/21 04:03:01;;;;;;;;;;;;;;;;;;6263632;28;20395;-66
2023/12/21 04:06:02;;;;;;;9.20;3.22;;;;;;;;;;6263196;28;19927;-66
2023/12/21 04:09:03;;;;;;;11.80;3.42;;;;;;;;;;6263407;28;20059;-67
2023/12/21 04:12:04;;;;;;;7.85;3.53;;;;;;;;;;6262270;28;20032;-67
2023/12/21 04:15:05;;;;;;;5.63;3.30;;;;;;;;;;6261304;28;20059;-67
2023/12/21 04:18:06;;;;;;;6.32;3.20;;;;;;;;;;6265075;28;20048;-69
2023/12/21 04:21:07;;;;;;;8.38;3.50;;;;;;;;;;6261720;28;20037;-69
2023/12/21 04:24:08;;;;;;;8.25;3.97;;;;;;;;;;6258012;28;20048;-68
2023/12/21 04:27:09;;;;;;;7.75;3.08;;;;;;;;;;6256629;28;20472;-68
2023/12/21 04:30:10;;;;;;;9.13;3.35;;;;;;;;;;6265173;28;20049;-69
2023/12/21 04:33:12;;;;;;;6.53;3.97;;;;;;;;;;6244807;28;20059;-67
2023/12/21 04:36:13;;;;;;;17.27;6.28;;;;;;;;;;6261045;28;20095;-68
2023/12/21 04:39:14;;;;;;;6.90;2.97;;;;;;;;;;6262923;28;20200;-68
2023/12/21 04:42:15;;;;;;;7.63;3.30;;;;;;;;;;6263074;28;20106;-66
2023/12/21 04:45:15;;;;;;;9.07;4.10;;;;;;;;;;6263292;28;20579;-68
2023/12/21 04:48:16;;;;;;;9.43;3.72;;;;;;;;;;6263329;28;20033;-68
2023/12/21 04:51:17;;;;;;;10.30;2.95;;;;;;;;;;6263119;28;20045;-68
2023/12/21 04:54:18;;;;;;;6.22;3.00;;;;;;;;;;6256564;28;20048;-68
2023/12/21 04:57:19;;;;;;;8.13;3.60;;;;;;;;;;6263012;28;20049;-68
2023/12/21 05:00:20;;;;;;;7.80;3.75;;;;;;;;;;6263437;28;20044;-68
2023/12/21 05:03:23;;;;;;;8.65;3.20;;;;;;;;;;6261540;28;20407;-68
2023/12/21 05:06:25;;;;;;;7.03;2.97;;;;;;;;;;6262654;28;20045;-68
2023/12/21 05:09:26;;;;;;;6.07;2.70;;;;;;;;;;6262950;28;20049;-68
2023/12/21 05:12:26;;;;;;;6.35;3.05;;;;;;;;;;6262703;28;20044;-69
2023/12/21 05:15:27;;;;;;;8.02;2.83;;;;;;;;;;6263249;28;20118;-69
2023/12/21 05:18:28;;;;;;;5.90;2.60;;;;;;;;;;6262479;28;20052;-69
2023/12/21 05:21:29;;;;;;;7.78;3.03;;;;;;;;;;6261519;28;20514;-68
2023/12/21 05:24:29;;;;;;;6.20;2.63;;;;;;;;;;6261608;28;20045;-69
2023/12/21 05:27:30;;;;;;;6.70;3.17;;;;;;;;;;6262706;28;20076;-69
2023/12/21 05:30:30;;;;;;;5.63;2.60;;;;;;;;;;6265119;28;20049;-69
2023/12/21 05:33:31;;;;;;;7.28;2.90;;;;;;;;;;6265407;28;20037;-69
2023/12/21 05:36:32;;;;;;;8.35;3.38;;;;;;;;;;6267952;28;20075;-69
2023/12/21 05:39:35;;;;;;;6.05;2.70;;;;;;;;;;6267668;28;20060;-69
2023/12/21 05:42:35;;;;;;;9.05;3.30;;;;;;;;;;6267348;28;20041;-69
2023/12/21 05:45:37;;;;;;;5.28;2.35;;;;;;;;;;6266702;28;20518;-69
2023/12/21 05:48:37;;;;;;;5.68;2.45;;;;;;;;;;6266127;28;20507;-69
2023/12/21 05:51:39;;;;;;;6.55;2.65;;;;;;;;;;6267539;28;20060;-70
2023/12/21 05:54:39;;;;;;;7.40;3.20;;;;;;;;;;6265234;28;20499;-70
2023/12/21 05:57:41;;;;;;;7.85;4.13;;;;;;;;;;6266602;28;20049;-69
2023/12/21 06:00:42;;;;;;;6.90;3.00;;;;;;;;;;6266193;28;20049;-69
2023/12/21 06:03:43;;;;;;;5.18;2.35;;;;;;;;;;6265631;28;20059;-69
2023/12/21 06:06:46;;;;;;;7.65;3.75;;;;;;;;;;6266072;28;20041;-69
2023/12/21 06:09:49;;;;;;;7.18;2.38;;;;;;;;;;6265015;28;20097;-70
2023/12/21 06:12:49;;;;;;;7.90;2.63;;;;;;;;;;6260193;28;20092;-69
2023/12/21 06:15:50;;;;;;;7.00;2.65;;;;;;;;;;6264622;28;20135;-67
2023/12/21 06:18:51;;;;;;;5.90;2.38;;;;;;;;;;6263523;28;20041;-67
2023/12/21 06:21:51;;;;;;;5.55;2.53;;;;;;;;;;6263168;28;20057;-68
2023/12/21 06:24:52;;;;;;;7.07;2.45;;;;;;;;;;6264329;28;20045;-69
2023/12/21 06:27:53;;;;;;;6.88;2.50;;;;;;;;;;6264744;28;20473;-70
2023/12/21 06:30:53;;;;;;;6.65;2.70;;;;;;;;;;6265244;28;20044;-69
2023/12/21 06:33:54;;;;;;;8.27;2.50;;;;;;;;;;6264688;28;20049;-69
2023/12/21 06:36:55;;;;;;;7.07;2.35;;;;;;;;;;6264335;28;20067;-69
2023/12/21 06:39:56;;;;;;;6.72;2.65;;;;;;;;;;6265310;28;20068;-69
2023/12/21 06:42:56;;;;;;;5.80;2.88;;;;;;;;;;6265496;28;20041;-69
2023/12/21 06:45:57;;;;;;;6.50;2.92;;;;;;;;;;6265395;28;20075;-70
2023/12/21 06:48:58;;;;;;;8.15;2.63;;;;;;;;;;6263643;28;20554;-68
2023/12/21 06:51:58;;;;;;;5.22;2.65;;;;;;;;;;6264709;28;20129;-69
2023/12/21 06:54:59;;;;;;;11.57;3.38;;;;;;;;;;6264415;28;20041;-69
2023/12/21 06:58:00;;;;;;;11.68;3.80;;;;;;;;;;6264560;28;20056;-69
2023/12/21 07:01:00;;;;;;;11.38;3.88;;;;;;;;;;6264647;28;20861;-69
2023/12/21 07:04:01;;;;;;;8.63;2.80;;;;;;;;;;6244905;28;20479;-69
2023/12/21 07:07:02;;;;;;;7.07;3.10;;;;;;;;;;6264583;28;20103;-69
2023/12/21 07:10:03;;;;;;;7.05;3.17;;;;;;;;;;6264078;28;20119;-69
2023/12/21 07:13:04;;;;;;;8.10;3.65;;;;;;;;;;6263494;28;20041;-69
2023/12/21 07:16:06;;;;;;;9.60;3.20;;;;;;;;;;6246623;28;20049;-69
2023/12/21 07:19:07;;;;;;;7.68;3.30;;;;;;;;;;6264364;28;20059;-69
2023/12/21 07:22:07;;;;;;;13.13;3.97;;;;;;;;;;6264627;28;20053;-69
2023/12/21 07:25:08;;;;;;;10.43;4.07;;;;;;;;;;6265481;28;20052;-69
2023/12/21 07:28:09;;;;;;;11.65;3.22;;;;;;;;;;6262522;28;20474;-69
2023/12/21 07:31:11;;;;;;;7.22;3.03;;;;;;;;;;6266544;28;20055;-69
2023/12/21 07:34:12;;;;;;;7.78;3.67;;;;;;;;;;6263328;28;20044;-69
2023/12/21 07:37:16;;;;;;;10.20;3.83;;;;;;;;;;6264843;28;20051;-69
2023/12/21 07:40:17;;;;;;;10.63;5.22;;;;;;;;;;6262663;28;20412;-69
2023/12/21 07:43:17;;;;;;;9.73;3.50;;;;;;;;;;6263580;28;20048;-69
2023/12/21 07:46:20;;;;;;;9.85;3.88;;;;;;;;;;6264017;28;20075;-69
2023/12/21 07:49:21;;;;;;;8.98;3.63;;;;;;;;;;6264273;28;20045;-69
2023/12/21 07:52:22;;;;;;;8.73;4.65;;;;;;;;;;6264191;28;20045;-69
2023/12/21 07:55:23;;;;;;;11.32;4.80;;;;;;;;;;6261789;28;20076;-68
2023/12/21 07:58:24;;;;;;;10.23;5.23;;;;;;;;;;6263472;28;20049;-69
2023/12/21 08:01:24;;;;;;;11.65;4.03;;;;;;;;;;6262204;28;20309;-68
2023/12/21 08:04:25;;;;;;;8.55;4.00;;;;;;;;;;6262961;28;20040;-68
2023/12/21 08:07:25;;;;;;;8.43;3.83;;;;;;;;;;6264179;28;20037;-69
2023/12/21 08:10:26;;;;;;;10.70;4.43;;;;;;;;;;6264374;28;20135;-69
2023/12/21 08:13:27;;;;;;;8.25;4.03;;;;;;;;;;6262712;28;20033;-70
2023/12/21 08:16:28;;;;;;;8.02;3.42;;;;;;;;;;6263249;28;20155;-69
2023/12/21 08:19:28;;;;;;;9.15;3.22;;;;;;;;;;6264034;28;20479;-69
2023/12/21 08:22:29;;;;;;;8.85;3.33;;;;;;;;;;6262419;28;20140;-69
2023/12/21 08:25:31;;;;;;;8.15;3.60;;;;;;;;;;6261958;28;20037;-69
2023/12/21 08:28:32;;;;;;;8.80;3.35;;;;;;;;;;6263299;28;20060;-69
2023/12/21 08:31:34;;;;;;;8.27;3.30;;;;;;;;;;6264062;28;20057;-68
2023/12/21 08:34:35;;;;;;;8.52;3.72;;;;;;;;;;6261962;28;20457;-69
2023/12/21 08:37:35;;;;;;;8.52;3.72;;;;;;;;;;6263787;28;20063;-69
2023/12/21 08:40:36;;;;;;;11.23;4.05;;;;;;;;;;6263947;28;20037;-68
2023/12/21 08:43:37;;;;;;;8.85;4.05;;;;;;;;;;6262099;28;20459;-69
2023/12/21 08:46:42;;;;;;;7.65;3.90;;;;;;;;;;6261803;28;20064;-69
2023/12/21 08:49:44;;;;;;;10.07;4.22;;;;;;;;;;6263333;28;20053;-69
2023/12/21 08:52:45;;;;;;;11.07;5.90;;;;;;;;;;6261734;28;20053;-70
2023/12/21 08:55:46;;;;;;;9.38;3.78;;;;;;;;;;6262462;28;20098;-70
2023/12/21 08:58:46;;;;;;;15.27;5.20;;;;;;;;;;6263368;28;20574;-68
2023/12/21 09:01:47;;;;;;;13.15;4.40;;;;;;;;;;6263587;28;20041;-67
2023/12/21 09:04:48;;;;;;;11.05;4.57;;;;;;;;;;6264465;28;20048;-70
2023/12/21 09:07:48;;;;;;;7.65;3.55;;;;;;;;;;6270004;28;20063;-69
2023/12/21 09:10:49;;;;;;;8.48;3.67;;;;;;;;;;6265837;28;20055;-69
2023/12/21 09:13:50;;;;;;;15.82;5.18;;;;;;;;;;6268495;28;20048;-70
2023/12/21 09:16:54;;;;;;;6.88;3.38;;;;;;;;;;6268062;28;20503;-67
2023/12/21 09:19:56;;;;;;;9.23;4.55;;;;;;;;;;6265258;28;20050;-69
2023/12/21 09:22:58;;;;;;;10.10;4.45;;;;;;;;;;6269046;28;20415;-69
2023/12/21 09:25:59;;;;;;;8.02;3.63;;;;;;;;;;6267136;28;20039;-67
2023/12/21 09:29:03;;;;;;;8.55;3.17;;;;;;;;;;6266025;28;20539;-69
2023/12/21 09:32:04;;;;;;;12.20;5.25;;;;;;;;;;6268176;28;20033;-69
2023/12/21 09:35:06;;;;;;;10.48;5.85;;;;;;;;;;6264613;28;20071;-69
2023/12/21 09:38:08;;;;;;;9.05;3.65;;;;;;;;;;6267941;28;20832;-69
2023/12/21 09:41:09;;;;;;;8.43;3.60;;;;;;;;;;6266669;28;20053;-69
2023/12/21 09:44:11;;;;;;;12.00;3.80;;;;;;;;;;6265344;28;20048;-69
2023/12/21 09:47:16;;;;;;;8.75;3.63;;;;;;;;;;6265689;28;20055;-69
2023/12/21 09:50:17;;;;;;;10.07;4.40;;;;;;;;;;6267262;28;20052;-67
2023/12/21 09:53:22;;;;;;;10.57;3.63;;;;;;;;;;6266955;28;20063;-67
2023/12/21 09:56:23;;;;;;;8.05;3.65;;;;;;;;;;6264971;28;20595;-69
2023/12/21 09:59:30;;;;;;;10.43;4.17;;;;;;;;;;6267461;28;20202;-69
2023/12/21 10:02:31;;;;;;;8.07;3.13;;;;;;;;;;6267349;28;20037;-69
2023/12/21 10:05:33;;;;;;;8.88;3.95;;;;;;;;;;6264091;28;20053;-67
2023/12/21 10:08:34;;;;;;;9.70;3.70;;;;;;;;;;6266250;28;20044;-68
2023/12/21 10:11:35;;;;;;;11.00;3.42;;;;;;;;;;6268825;28;20050;-69
2023/12/21 10:14:35;;;;;;;9.55;3.65;;;;;;;;;;6264498;28;20467;-69
2023/12/21 10:17:37;;;;;;;9.38;3.60;;;;;;;;;;6265585;28;20052;-68
2023/12/21 10:20:39;;;;;;;11.30;4.07;;;;;;;;;;6266349;28;20049;-69
2023/12/21 10:23:41;;;;;;;6.97;2.60;;;;;;;;;;6264701;28;20053;-68
2023/12/21 10:26:45;;;;;;;7.63;3.13;;;;;;;;;;6263922;28;20047;-68
2023/12/21 10:29:56;;;;;;;8.52;2.80;;;;;;;;;;6265057;28;20396;-69
2023/12/21 10:32:57;;;;;;;12.80;4.07;;;;;;;;;;6266711;28;20180;-68
2023/12/21 10:35:58;;;;;;;7.53;3.15;;;;;;;;;;6265409;28;20053;-69
2023/12/21 10:38:59;;;;;;;9.85;3.20;;;;;;;;;;6264347;28;20484;-68
2023/12/21 10:42:00;;;;;;;10.00;3.70;;;;;;;;;;6265739;28;20053;-69
2023/12/21 10:45:02;;;;;;;7.68;3.40;;;;;;;;;;6264415;28;20049;-69
2023/12/21 10:48:08;;;;;;;10.77;3.55;;;;;;;;;;6265793;28;20111;-68
2023/12/21 10:51:10;;;;;;;8.93;4.03;;;;;;;;;;6262603;28;20789;-69
2023/12/21 10:54:14;;;;;;;8.27;3.30;;;;;;;;;;6265861;28;20052;-69
2023/12/21 10:57:15;;;;;;;7.03;3.10;;;;;;;;;;6263308;28;20049;-69
2023/12/21 11:00:16;;;;;;;9.75;3.33;;;;;;;;;;6263354;28;20098;-68
2023/12/21 11:03:19;;;;;;;9.38;3.10;;;;;;;;;;6264260;28;20036;-69
2023/12/21 11:06:22;;;;;;;8.95;3.35;;;;;;;;;;6264896;28;20506;-69
2023/12/21 11:09:22;;;;;;;7.07;3.05;;;;;;;;;;6264662;28;20101;-69
2023/12/21 11:12:23;;;;;;;8.95;3.30;;;;;;;;;;6264772;28;20037;-69
2023/12/21 11:15:24;;;;;;;6.85;2.88;;;;;;;;;;6265388;28;20049;-67
2023/12/21 11:18:25;;;;;;;8.18;3.30;;;;;;;;;;6263662;28;20499;-69
2023/12/21 11:21:27;;;;;;;10.57;5.57;;;;;;;;;;6263981;28;20045;-69
2023/12/21 11:24:28;;;;;;;8.63;2.92;;;;;;;;;;6264060;28;20454;-69
2023/12/21 11:27:30;;;;;;;8.48;3.10;;;;;;;;;;6262379;28;20091;-68
2023/12/21 11:30:33;;;;;;;;;;;;;;;;;;6264462;28;20049;-69
2023/12/21 11:33:34;;;;;;;6.15;2.42;;;;;;;;;;6263693;28;19921;-69
2023/12/21 11:36:35;;;;;;;8.18;2.80;;;;;;;;;;6263035;28;20138;-70
2023/12/21 11:39:37;;;;;;;10.60;2.60;;;;;;;;;;6264142;28;20795;-69
2023/12/21 11:42:47;;;;;;;7.15;2.88;;;;;;;;;;6262945;28;20144;-69
2023/12/21 11:45:49;;;;;;;8.10;2.90;;;;;;;;;;6261820;28;20053;-69
2023/12/21 11:48:50;;;;;;;7.63;2.72;;;;;;;;;;6263259;28;20424;-69
2023/12/21 11:51:51;;;;;;;4.90;2.38;;;;;;;;;;6264569;28;20040;-69
2023/12/21 11:54:52;;;;;;;4.87;2.30;;;;;;;;;;6264836;28;20055;-69
2023/12/21 11:58:16;;;;;;;6.10;2.35;;;;;;;;;;6262722;28;20041;-67
2023/12/21 12:01:22;;;;;;;7.55;2.75;;;;;;;;;;6250295;28;20041;-69
2023/12/21 12:04:23;;;;;;;7.90;3.00;;;;;;;;;;6261311;28;20047;-69
2023/12/21 12:07:24;;;;;;;6.03;2.58;;;;;;;;;;6264295;28;20045;-68
2023/12/21 12:10:25;;;;;;;7.45;3.40;;;;;;;;;;6262652;28;20052;-69
2023/12/21 12:13:26;;;;;;;8.15;3.33;;;;;;;;;;6263965;28;20362;-69
2023/12/21 12:16:26;;;;;;;6.05;3.00;;;;;;;;;;6263369;28;20438;-69
2023/12/21 12:19:27;;;;;;;8.73;3.50;;;;;;;;;;6262695;28;20420;-69
2023/12/21 12:22:28;;;;;;;10.65;3.45;;;;;;;;;;6262941;28;20503;-69
2023/12/21 12:25:29;;;;;;;7.13;3.30;;;;;;;;;;6264051;28;20527;-69
2023/12/21 12:28:30;;;;;;;8.25;3.72;;;;;;;;;;6263848;28;20063;-69
2023/12/21 12:31:31;;;;;;;7.05;3.00;;;;;;;;;;6262944;28;20131;-69
2023/12/21 12:34:32;;;;;;;9.60;3.88;;;;;;;;;;6262453;28;20544;-69
2023/12/21 12:37:35;;;;;;;5.57;2.60;;;;;;;;;;6263587;28;20052;-69
2023/12/21 12:40:36;;;;;;;9.23;3.38;;;;;;;;;;6260689;28;20052;-69
2023/12/21 12:43:38;;;;;;;12.65;4.90;;;;;;;;;;6264041;28;20156;-68
2023/12/21 12:46:39;;;;;;;11.52;4.70;;;;;;;;;;6262276;28;20492;-69
2023/12/21 12:49:41;;;;;;;7.40;3.30;;;;;;;;;;6242118;28;20510;-69
2023/12/21 12:52:45;;;;;;;9.32;3.70;;;;;;;;;;6241703;28;20599;-69
2023/12/21 12:55:46;;;;;;;10.38;5.28;;;;;;;;;;6240656;28;20041;-69
2023/12/21 12:58:47;;;;;;;9.55;3.50;;;;;;;;;;6240101;28;20114;-69
2023/12/21 13:01:48;;;;;;;6.97;2.70;;;;;;;;;;6235795;28;20049;-69
2023/12/21 13:04:49;;;;;;;5.90;2.20;;;;;;;;;;6243005;28;20049;-69
2023/12/21 13:07:50;;;;;;;8.27;3.30;;;;;;;;;;6242786;28;20045;-69
2023/12/21 13:10:51;;;;;;;5.32;2.40;;;;;;;;;;6238462;28;21267;-69
2023/12/21 13:13:52;;;;;;;6.78;2.20;;;;;;;;;;6240069;28;20064;-68
2023/12/21 13:16:52;;;;;;;7.75;2.38;;;;;;;;;;6242800;28;20106;-69
2023/12/21 13:19:53;;;;;;;8.63;3.15;;;;;;;;;;6243529;28;20041;-69
2023/12/21 13:22:54;;;;;;;4.82;2.53;;;;;;;;;;6239784;28;20048;-69
2023/12/21 13:25:55;;;;;;;5.18;2.47;;;;;;;;;;6242147;28;20524;-68
2023/12/21 13:28:58;;;;;;;7.28;2.90;;;;;;;;;;6240521;28;20119;-73
2023/12/21 13:32:00;;;;;;;8.77;3.40;;;;;;;;;;6245205;28;21088;-73
2023/12/21 13:35:00;;;;;;;6.32;2.65;;;;;;;;;;6239030;28;20056;-73
2023/12/21 13:38:01;;;;;;;6.43;2.55;;;;;;;;;;6240770;28;20506;-75
2023/12/21 13:41:02;;;;;;;14.88;5.53;;;;;;;;;;6236840;28;20517;-71
2023/12/21 13:44:04;;;;;;;11.70;5.40;;;;;;;;;;6239712;28;20721;-73
2023/12/21 13:47:05;;;;;;;9.32;3.60;;;;;;;;;;6241757;28;20563;-74
2023/12/21 13:50:06;;;;;;;9.00;3.35;;;;;;;;;;6236797;28;20053;-77
2023/12/21 13:53:07;;;;;;;7.55;2.80;;;;;;;;;;6247265;28;20042;-69
2023/12/21 13:56:09;;;;;;;8.30;4.85;;;;;;;;;;6242734;28;20064;-74
2023/12/21 13:59:10;;;;;;;8.80;4.30;;;;;;;;;;6245708;28;20571;-77
2023/12/21 14:02:10;;;;;;;16.98;5.72;;;;;;;;;;6240770;28;20061;-72
2023/12/21 14:05:11;;;;;;;9.43;3.33;;;;;;;;;;6244034;28;20500;-67
2023/12/21 14:08:12;;;;;;;9.60;4.10;;;;;;;;;;6249545;28;20044;-75
2023/12/21 14:11:13;;;;;;;6.68;2.90;;;;;;;;;;6241445;28;20049;-73
2023/12/21 14:14:14;;;;;;;10.43;3.90;;;;;;;;;;6246354;28;20057;-72
2023/12/21 14:17:15;;;;;;;9.18;4.32;;;;;;;;;;6244011;28;20041;-72
2023/12/21 14:20:18;;;;;;;7.30;3.20;;;;;;;;;;6239577;28;20045;-73
2023/12/21 14:23:21;;;;;;;9.80;4.25;;;;;;;;;;6249943;28;20080;-71
2023/12/21 14:26:23;;;;;;;7.70;3.08;;;;;;;;;;6243375;28;20048;-72
2023/12/21 14:29:24;;;;;;;8.10;2.63;;;;;;;;;;6237032;28;20560;-70
2023/12/21 14:32:27;;;;;;;9.07;3.20;;;;;;;;;;6242201;28;20637;-72
2023/12/21 14:35:28;;;;;;;7.20;2.05;;;;;;;;;;6223339;28;20048;-72
2023/12/21 14:38:29;;;;;;;16.75;4.07;;;;;;;;;;6241389;28;20515;-71
2023/12/21 14:41:29;;;;;;;6.47;2.72;;;;;;;;;;6242928;28;20036;-69
2023/12/21 14:44:30;;;;;;;9.13;3.08;;;;;;;;;;6247389;28;20796;-69
2023/12/21 14:47:32;;;;;;;6.38;3.58;;;;;;;;;;6248986;28;20103;-72
2023/12/21 14:50:33;;;;;;;11.50;3.28;;;;;;;;;;6237333;28;21367;-68
2023/12/21 14:53:34;;;;;;;9.20;4.15;;;;;;;;;;6247753;28;20056;-71
2023/12/21 14:56:35;;;;;;;6.63;1.75;;;;;;;;;;6241961;28;20121;-70
2023/12/21 14:59:36;;;;;;;9.13;3.40;;;;;;;;;;6243399;28;20053;-72
2023/12/21 15:02:37;;;;;;;7.95;2.55;;;;;;;;;;6241024;28;20050;-73
2023/12/21 15:05:38;;;;;;;9.35;2.65;;;;;;;;;;6241474;28;20079;-73
2023/12/21 15:08:39;;;;;;;10.00;2.60;;;;;;;;;;6241882;28;20048;-70
2023/12/21 15:11:39;;;;;;;10.73;3.08;;;;;;;;;;6244787;28;20049;-73
2023/12/21 15:14:41;;;;;;;14.52;5.10;;;;;;;;;;6243356;28;20140;-70
2023/12/21 15:17:42;;;;;;;6.38;2.97;;;;;;;;;;6244080;28;20504;-70
2023/12/21 15:20:43;;;;;;;9.82;5.15;;;;;;;;;;6239900;28;20114;-73
2023/12/21 15:23:43;;;;;;;6.85;2.38;;;;;;;;;;6241266;28;20061;-72
2023/12/21 15:26:44;;;;;;;11.13;4.38;;;;;;;;;;6239621;28;20053;-69
2023/12/21 15:29:45;;;;;;;7.70;3.65;;;;;;;;;;6239179;28;20049;-75
2023/12/21 15:32:47;;;;;;;5.88;2.13;;;;;;;;;;6240072;28;20088;-74
2023/12/21 15:35:48;;;;;;;9.13;4.97;;;;;;;;;;6239543;28;20049;-73
2023/12/21 15:38:48;;;;;;;5.57;2.17;;;;;;;;;;6240251;28;20055;-73
2023/12/21 15:41:49;;;;;;;15.52;4.10;;;;;;;;;;6238663;28;20053;-70
2023/12/21 15:44:51;;;;;;;16.25;3.25;;;;;;;;;;6241440;28;20492;-69
2023/12/21 15:47:53;;;;;;;7.80;2.53;;;;;;;;;;6242262;28;20041;-69
2023/12/21 15:50:54;;;;;;;;;;;;;;;;;;6239308;28;20061;-66
2023/12/21 15:53:55;;;;;;;8.88;2.30;;;;;;;;;;6241305;28;19929;-68
2023/12/21 15:56:56;;;;;;;20.10;8.27;;;;;;;;;;6244403;28;20056;-70
2023/12/21 15:59:56;;;;;;;18.63;5.70;;;;;;;;;;6236512;28;20054;-69
2023/12/21 16:02:57;;;;;;;68.75;24.83;;;;;;;;;;6241215;28;20504;-70
2023/12/21 16:05:59;;;;;;;33.88;12.88;;;;;;;;;;6244291;28;20041;-71
2023/12/21 16:09:00;;;;;;;89.03;30.38;;;;;;;;;;6246166;28;20418;-70
2023/12/21 16:12:03;;;;;;;36.65;10.35;;;;;;;;;;6237994;28;20061;-70
2023/12/21 16:15:05;;;;;;;62.92;13.07;;;;;;;;;;6241912;28;20057;-69
2023/12/21 16:18:06;;;;;;;26.60;7.30;;;;;;;;;;6242337;28;20076;-64
2023/12/21 16:21:07;;;;;;;20.07;7.27;;;;;;;;;;6246570;28;20048;-70
2023/12/21 16:24:09;;;;;;;17.92;7.78;;;;;;;;;;6239791;28;20083;-71
2023/12/21 16:27:11;;;;;;;30.83;9.40;;;;;;;;;;6245615;28;20653;-71
2023/12/21 16:30:15;;;;;;;14.00;4.10;;;;;;;;;;6237899;28;20041;-71
2023/12/21 16:33:17;;;;;;;12.25;4.30;;;;;;;;;;6241468;28;20053;-71
2023/12/21 16:36:17;;;;;;;11.10;3.83;;;;;;;;;;6243348;28;20155;-70
2023/12/21 16:39:18;;;;;;;19.75;8.20;;;;;;;;;;6240122;28;20397;-70
2023/12/21 16:42:20;;;;;;;12.88;3.85;;;;;;;;;;6241926;28;20098;-70
2023/12/21 16:45:21;;;;;;;12.38;3.30;;;;;;;;;;6237633;28;20042;-71
2023/12/21 16:48:21;;;;;;;12.18;4.68;;;;;;;;;;6240335;28;20060;-70
2023/12/21 16:51:22;;;;;;;9.70;4.03;;;;;;;;;;6239348;28;20045;-71
2023/12/21 16:54:23;;;;;;;12.40;4.20;;;;;;;;;;6240578;28;20606;-70
2023/12/21 16:57:24;;;;;;;14.63;5.25;;;;;;;;;;6240508;28;20424;-70
2023/12/21 17:00:25;;;;;;;18.38;6.32;;;;;;;;;;6244044;28;20060;-71
2023/12/21 17:03:26;;;;;;;12.27;3.67;;;;;;;;;;6240531;28;20102;-70
2023/12/21 17:06:26;;;;;;;8.27;3.38;;;;;;;;;;6242032;28;20083;-70
2023/12/21 17:09:27;;;;;;;11.68;5.40;;;;;;;;;;6243719;28;20044;-70
2023/12/21 17:12:28;;;;;;;8.13;2.58;;;;;;;;;;6237459;28;20044;-71
2023/12/21 17:15:31;;;;;;;13.07;4.03;;;;;;;;;;6243735;28;20061;-71
2023/12/21 17:18:32;;;;;;;10.20;3.30;;;;;;;;;;6245749;28;20135;-70
2023/12/21 17:21:35;;;;;;;9.13;3.35;;;;;;;;;;6238026;28;20163;-70
2023/12/21 17:24:36;;;;;;;28.00;9.52;;;;;;;;;;6242064;28;20045;-71
2023/12/21 17:27:36;;;;;;;17.10;5.00;;;;;;;;;;6246970;28;20052;-71
2023/12/21 17:30:40;;;;;;;48.65;11.02;;;;;;;;;;6243594;28;20037;-71
2023/12/21 17:33:41;;;;;;;30.40;7.53;;;;;;;;;;6240126;28;20045;-70
2023/12/21 17:36:41;;;;;;;97.63;20.25;;;;;;;;;;6243452;28;20060;-71
2023/12/21 17:39:42;;;;;;;22.88;8.27;;;;;;;;;;6242572;28;20152;-71
2023/12/21 17:42:43;;;;;;;10.00;3.58;;;;;;;;;;6244423;28;20057;-71
2023/12/21 17:45:43;;;;;;;80.47;14.88;;;;;;;;;;6251768;28;20083;-70
2023/12/21 17:48:44;;;;;;;126.20;25.65;;;;;;;;;;6243470;28;20053;-70
2023/12/21 17:51:46;;;;;;;22.15;6.45;;;;;;;;;;6241097;28;20100;-63
2023/12/21 17:54:47;;;;;;;13.85;4.22;;;;;;;;;;6241565;28;20033;-72
2023/12/21 17:57:48;;;;;;;83.03;21.30;;;;;;;;;;6248292;28;20834;-70
2023/12/21 18:00:48;;;;;;;8.80;3.45;;;;;;;;;;6245389;28;20052;-70